createdAt,value
2018-08-13T00:01:41.554Z,25.30
2018-08-13T00:04:09.992Z,25.30
2018-08-13T00:06:38.439Z,25.30
2018-08-13T00:09:07.614Z,25.30
2018-08-13T00:11:36.093Z,25.30
2018-08-13T00:14:04.495Z,25.30
2018-08-13T00:16:32.887Z,25.30
2018-08-13T00:19:01.342Z,25.30
2018-08-13T00:21:29.777Z,25.30
2018-08-13T00:23:58.180Z,25.30
2018-08-13T00:26:26.590Z,25.30
2018-08-13T00:28:58.571Z,25.30
2018-08-13T00:31:26.992Z,25.30
2018-08-13T00:33:59.163Z,25.20
2018-08-13T00:36:27.604Z,25.20
2018-08-13T00:38:56.043Z,25.10
2018-08-13T00:41:24.488Z,25.10
2018-08-13T00:43:52.894Z,25.10
2018-08-13T00:46:21.367Z,25.10
2018-08-13T00:48:49.783Z,25.20
2018-08-13T00:51:18.188Z,25.20
2018-08-13T00:53:46.590Z,25.20
2018-08-13T00:56:15.044Z,25.20
2018-08-13T00:58:43.434Z,25.20
2018-08-13T01:01:11.906Z,25.20
2018-08-13T01:03:40.374Z,25.30
2018-08-13T01:06:08.806Z,25.30
2018-08-13T01:08:37.215Z,25.30
2018-08-13T01:11:05.683Z,25.30
2018-08-13T01:13:34.147Z,25.30
2018-08-13T01:16:02.800Z,25.30
2018-08-13T01:18:31.231Z,25.20
2018-08-13T01:20:59.627Z,25.20
2018-08-13T01:23:28.039Z,25.20
2018-08-13T01:25:56.469Z,25.20
2018-08-13T01:28:24.893Z,25.20
2018-08-13T01:30:53.804Z,25.20
2018-08-13T01:33:22.220Z,25.30
2018-08-13T01:35:50.620Z,25.20
2018-08-13T01:38:19.069Z,25.20
2018-08-13T01:40:47.517Z,25.30
2018-08-13T01:43:19.832Z,25.20
2018-08-13T01:45:48.260Z,25.20
2018-08-13T01:48:16.692Z,25.20
2018-08-13T01:50:45.139Z,25.20
2018-08-13T01:53:13.627Z,25.20
2018-08-13T01:55:42.266Z,25.20
2018-08-13T02:00:38.803Z,25.10
2018-08-13T02:03:07.219Z,25.10
2018-08-13T02:05:35.642Z,25.20
2018-08-13T02:08:04.059Z,25.20
2018-08-13T02:10:32.530Z,25.20
2018-08-13T02:13:01.027Z,25.20
2018-08-13T02:15:29.434Z,25.10
2018-08-13T02:17:57.887Z,25.10
2018-08-13T02:20:26.316Z,25.10
2018-08-13T02:22:54.771Z,25.20
2018-08-13T02:25:23.194Z,25.10
2018-08-13T02:27:51.614Z,25.20
2018-08-13T02:30:20.047Z,25.10
2018-08-13T02:32:48.803Z,25.10
2018-08-13T02:35:17.216Z,25.10
2018-08-13T02:37:45.642Z,25.10
2018-08-13T02:40:14.050Z,25.10
2018-08-13T02:42:42.467Z,25.10
2018-08-13T02:45:11.493Z,25.10
2018-08-13T02:47:39.887Z,25.10
2018-08-13T02:50:10.809Z,25.10
2018-08-13T02:52:39.606Z,25.10
2018-08-13T02:55:08.673Z,25.10
2018-08-13T02:57:37.062Z,25.10
2018-08-13T03:00:06.789Z,25.10
2018-08-13T03:02:35.231Z,25.10
2018-08-13T03:05:03.846Z,25.10
2018-08-13T03:07:32.267Z,25.00
2018-08-13T03:10:00.671Z,25.10
2018-08-13T03:12:29.072Z,25.10
2018-08-13T03:14:57.463Z,25.10
2018-08-13T03:17:29.527Z,25.00
2018-08-13T03:19:58.799Z,25.00
2018-08-13T03:22:27.767Z,25.00
2018-08-13T03:24:56.167Z,25.00
2018-08-13T03:27:24.853Z,25.00
2018-08-13T03:29:53.281Z,25.00
2018-08-13T03:32:21.744Z,25.00
2018-08-13T03:34:50.259Z,25.00
2018-08-13T03:37:18.666Z,25.00
2018-08-13T03:39:47.078Z,25.00
2018-08-13T03:42:15.507Z,25.00
2018-08-13T03:44:43.930Z,25.00
2018-08-13T03:47:13.350Z,25.00
2018-08-13T03:49:41.759Z,25.00
2018-08-13T03:52:11.001Z,25.00
2018-08-13T03:54:39.439Z,25.00
2018-08-13T03:57:07.878Z,25.00
2018-08-13T03:59:36.368Z,25.00
2018-08-13T04:02:05.167Z,24.90
2018-08-13T04:04:33.600Z,24.90
2018-08-13T04:07:02.011Z,24.90
2018-08-13T04:09:30.391Z,24.90
2018-08-13T04:11:58.816Z,24.90
2018-08-13T04:14:27.363Z,24.90
2018-08-13T04:16:59.975Z,24.90
2018-08-13T04:19:28.510Z,24.90
2018-08-13T04:21:57.109Z,24.90
2018-08-13T04:24:25.791Z,24.90
2018-08-13T04:26:54.580Z,24.90
2018-08-13T04:29:23.115Z,24.90
2018-08-13T04:31:51.549Z,24.90
2018-08-13T04:34:20.163Z,24.90
2018-08-13T04:36:48.820Z,24.90
2018-08-13T04:39:17.240Z,24.90
2018-08-13T04:41:45.870Z,24.90
2018-08-13T04:44:14.278Z,24.90
2018-08-13T04:46:42.772Z,24.90
2018-08-13T04:49:11.259Z,24.80
2018-08-13T04:51:39.673Z,24.90
2018-08-13T04:54:08.123Z,24.80
2018-08-13T04:56:36.550Z,24.80
2018-08-13T04:59:05.042Z,24.70
2018-08-13T05:01:33.410Z,24.70
2018-08-13T05:04:01.984Z,24.70
2018-08-13T05:06:30.431Z,24.60
2018-08-13T05:08:58.855Z,24.70
2018-08-13T05:11:27.252Z,24.70
2018-08-13T05:13:56.028Z,24.70
2018-08-13T05:16:24.790Z,24.70
2018-08-13T05:18:53.333Z,24.70
2018-08-13T05:21:21.890Z,24.60
2018-08-13T05:23:50.300Z,24.70
2018-08-13T05:26:18.710Z,24.70
2018-08-13T05:28:47.136Z,24.80
2018-08-13T05:31:15.608Z,25.00
2018-08-13T05:33:44.039Z,25.00
2018-08-13T05:36:12.521Z,25.10
2018-08-13T05:38:44.770Z,25.00
2018-08-13T05:41:13.236Z,25.00
2018-08-13T05:43:45.171Z,25.00
2018-08-13T05:46:13.653Z,25.00
2018-08-13T05:48:42.136Z,25.00
2018-08-13T05:51:10.685Z,25.10
2018-08-13T05:53:39.117Z,25.00
2018-08-13T05:56:07.532Z,25.00
2018-08-13T05:58:36.019Z,25.00
2018-08-13T06:01:04.500Z,25.00
2018-08-13T06:03:32.915Z,25.00
2018-08-13T06:06:01.584Z,25.00
2018-08-13T06:08:30.016Z,25.00
2018-08-13T06:10:58.491Z,25.00
2018-08-13T06:13:26.923Z,24.90
2018-08-13T06:15:55.399Z,24.80
2018-08-13T06:18:23.945Z,24.90
2018-08-13T06:20:52.363Z,24.70
2018-08-13T06:23:20.800Z,24.70
2018-08-13T06:25:49.223Z,24.70
2018-08-13T06:28:17.723Z,24.70
2018-08-13T06:30:46.136Z,24.60
2018-08-13T06:33:14.566Z,24.60
2018-08-13T06:35:43.063Z,24.50
2018-08-13T06:38:11.483Z,24.50
2018-08-13T06:40:40.058Z,24.50
2018-08-13T06:43:08.491Z,24.50
2018-08-13T06:45:36.918Z,24.50
2018-08-13T06:48:05.527Z,24.50
2018-08-13T06:50:33.978Z,24.60
2018-08-13T06:53:02.377Z,24.60
2018-08-13T06:55:30.844Z,24.60
2018-08-13T06:57:59.267Z,24.50
2018-08-13T07:00:27.669Z,24.60
2018-08-13T07:02:56.088Z,24.60
2018-08-13T07:05:24.455Z,24.50
2018-08-13T07:07:52.868Z,24.50
2018-08-13T07:10:21.270Z,24.50
2018-08-13T07:12:49.735Z,24.50
2018-08-13T07:15:18.139Z,24.50
2018-08-13T07:17:46.504Z,24.50
2018-08-13T07:20:16.734Z,24.60
2018-08-13T07:22:45.380Z,24.60
2018-08-13T07:25:13.751Z,24.50
2018-08-13T07:27:42.610Z,24.60
2018-08-13T07:30:12.563Z,24.60
2018-08-13T07:32:41.048Z,24.60
2018-08-13T07:35:09.758Z,24.60
2018-08-13T07:37:38.191Z,24.50
2018-08-13T07:40:09.530Z,24.60
2018-08-13T07:42:38.144Z,24.60
2018-08-13T07:45:07.254Z,24.60
2018-08-13T07:47:35.659Z,24.60
2018-08-13T07:50:04.106Z,24.60
2018-08-13T07:52:32.490Z,24.50
2018-08-13T07:55:00.882Z,24.60
2018-08-13T07:57:29.304Z,24.60
2018-08-13T07:59:57.712Z,24.60
2018-08-13T08:02:26.084Z,24.60
2018-08-13T08:04:54.490Z,24.60
2018-08-13T08:07:22.927Z,24.60
2018-08-13T08:09:51.286Z,24.50
2018-08-13T08:12:19.733Z,24.50
2018-08-13T08:14:48.254Z,24.50
2018-08-13T08:17:16.620Z,24.50
2018-08-13T08:19:45.131Z,24.50
2018-08-13T08:22:13.519Z,24.50
2018-08-13T08:24:41.929Z,24.50
2018-08-13T08:27:10.342Z,24.50
2018-08-13T08:29:38.755Z,24.50
2018-08-13T08:32:07.166Z,24.50
2018-08-13T08:34:35.559Z,24.50
2018-08-13T08:37:03.984Z,24.50
2018-08-13T08:39:32.381Z,24.50
2018-08-13T08:42:00.767Z,24.50
2018-08-13T08:44:30.276Z,24.50
2018-08-13T08:46:58.665Z,24.50
2018-08-13T08:49:27.066Z,24.50
2018-08-13T08:51:59.263Z,24.50
2018-08-13T08:54:27.731Z,24.50
2018-08-13T08:56:56.157Z,24.50
2018-08-13T08:59:24.582Z,24.50
2018-08-13T09:01:52.966Z,24.50
2018-08-13T09:04:21.413Z,24.50
2018-08-13T09:06:49.782Z,24.50
2018-08-13T09:09:18.166Z,24.60
2018-08-13T09:11:46.534Z,24.60
2018-08-13T09:14:15.028Z,24.50
2018-08-13T09:16:46.913Z,24.50
2018-08-13T09:19:26.598Z,24.50
2018-08-13T09:22:07.975Z,24.50
2018-08-13T09:24:47.782Z,24.50
2018-08-13T09:27:27.519Z,24.50
2018-08-13T09:30:07.296Z,24.50
2018-08-13T09:32:47.221Z,24.50
2018-08-13T09:35:21.084Z,24.50
2018-08-13T09:37:49.502Z,24.50
2018-08-13T09:40:17.896Z,24.40
2018-08-13T09:42:46.293Z,24.40
2018-08-13T09:45:14.885Z,24.40
2018-08-13T09:47:43.262Z,24.40
2018-08-13T09:50:13.979Z,24.40
2018-08-13T09:52:43.100Z,24.40
2018-08-13T09:55:11.974Z,24.40
2018-08-13T09:57:40.362Z,24.30
2018-08-13T10:01:13.663Z,24.30
2018-08-13T10:03:42.151Z,24.30
2018-08-13T10:06:10.587Z,24.40
2018-08-13T10:08:39.076Z,24.40
2018-08-13T10:11:07.567Z,24.50
2018-08-13T10:13:36.055Z,24.50
2018-08-13T10:16:04.550Z,24.50
2018-08-13T10:18:32.999Z,24.50
2018-08-13T10:21:01.431Z,24.50
2018-08-13T10:23:29.947Z,24.50
2018-08-13T10:25:58.404Z,24.60
2018-08-13T10:28:26.871Z,24.70
2018-08-13T10:30:55.330Z,24.70
2018-08-13T10:33:23.739Z,24.80
2018-08-13T10:35:52.156Z,24.70
2018-08-13T10:38:20.616Z,24.80
2018-08-13T10:40:49.062Z,24.70
2018-08-13T10:43:17.513Z,24.70
2018-08-13T10:45:46.147Z,24.70
2018-08-13T10:48:14.546Z,24.70
2018-08-13T10:50:42.955Z,24.70
2018-08-13T10:53:11.421Z,24.70
2018-08-13T10:55:39.860Z,24.70
2018-08-13T10:58:08.289Z,24.70
2018-08-13T11:00:36.775Z,24.70
2018-08-13T11:03:05.192Z,24.70
2018-08-13T11:05:33.615Z,24.70
2018-08-13T11:08:02.052Z,24.70
2018-08-13T11:10:30.504Z,24.70
2018-08-13T11:12:58.912Z,24.70
2018-08-13T11:15:27.355Z,24.60
2018-08-13T11:17:55.755Z,24.70
2018-08-13T11:20:24.147Z,24.70
2018-08-13T11:22:52.569Z,24.70
2018-08-13T11:25:21.021Z,24.70
2018-08-13T11:27:49.427Z,24.70
2018-08-13T11:30:18.095Z,24.70
2018-08-13T11:32:46.540Z,24.70
2018-08-13T11:35:15.698Z,24.70
2018-08-13T11:37:44.288Z,24.70
2018-08-13T11:40:15.187Z,24.70
2018-08-13T11:42:43.644Z,24.80
2018-08-13T11:45:12.253Z,24.80
2018-08-13T11:47:41.275Z,24.90
2018-08-13T11:50:12.244Z,24.90
2018-08-13T11:52:40.720Z,24.90
2018-08-13T11:55:09.191Z,24.90
2018-08-13T11:57:37.676Z,24.90
2018-08-13T12:00:08.979Z,24.90
2018-08-13T12:02:37.818Z,24.80
2018-08-13T12:05:09.203Z,24.80
2018-08-13T12:07:37.646Z,24.70
2018-08-13T12:10:07.327Z,24.60
2018-08-13T12:12:36.022Z,24.60
2018-08-13T12:15:05.914Z,24.60
2018-08-13T12:17:34.366Z,24.60
2018-08-13T12:20:03.166Z,24.60
2018-08-13T12:22:31.746Z,24.70
2018-08-13T12:25:00.251Z,24.80
2018-08-13T12:27:28.728Z,24.80
2018-08-13T12:29:57.175Z,24.90
2018-08-13T12:32:25.595Z,24.90
2018-08-13T12:34:54.019Z,24.80
2018-08-13T12:37:22.459Z,24.90
2018-08-13T12:39:50.920Z,24.90
2018-08-13T12:42:19.341Z,24.90
2018-08-13T12:44:47.838Z,24.90
2018-08-13T12:47:16.255Z,25.00
2018-08-13T12:49:48.319Z,25.00
2018-08-13T12:52:16.782Z,25.00
2018-08-13T12:54:45.182Z,25.00
2018-08-13T12:57:13.709Z,25.10
2018-08-13T12:59:42.055Z,25.10
2018-08-13T13:02:10.474Z,25.20
2018-08-13T13:04:38.885Z,25.20
2018-08-13T13:07:07.314Z,25.30
2018-08-13T13:09:35.755Z,25.30
2018-08-13T13:12:04.266Z,25.30
2018-08-13T13:14:32.765Z,25.20
2018-08-13T13:17:01.163Z,25.20
2018-08-13T13:19:29.708Z,25.20
2018-08-13T13:21:58.140Z,25.20
2018-08-13T13:24:26.638Z,25.30
2018-08-13T13:26:55.083Z,25.30
2018-08-13T13:29:23.475Z,25.30
2018-08-13T13:31:51.878Z,25.30
2018-08-13T13:34:20.341Z,25.30
2018-08-13T13:36:48.850Z,25.30
2018-08-13T13:39:17.283Z,25.30
2018-08-13T13:41:45.744Z,25.30
2018-08-13T13:44:14.160Z,25.30
2018-08-13T13:46:42.588Z,25.30
2018-08-13T13:49:11.142Z,25.20
2018-08-13T13:51:39.761Z,25.20
2018-08-13T13:54:08.190Z,25.20
2018-08-13T13:56:36.635Z,25.20
2018-08-13T13:59:05.259Z,25.20
2018-08-13T14:01:33.686Z,25.20
2018-08-13T14:04:02.100Z,25.20
2018-08-13T14:06:30.531Z,25.20
2018-08-13T14:08:58.974Z,25.20
2018-08-13T14:11:27.439Z,25.10
2018-08-13T14:13:55.835Z,25.10
2018-08-13T14:16:24.255Z,25.00
2018-08-13T14:18:52.724Z,25.00
2018-08-13T14:21:21.171Z,25.00
2018-08-13T14:23:49.576Z,25.00
2018-08-13T14:26:18.014Z,25.00
2018-08-13T14:28:46.436Z,24.90
2018-08-13T14:31:14.856Z,24.90
2018-08-13T14:33:43.287Z,24.90
2018-08-13T14:36:11.681Z,25.00
2018-08-13T14:38:40.185Z,25.10
2018-08-13T14:41:08.669Z,25.10
2018-08-13T14:43:37.127Z,25.10
2018-08-13T14:46:05.569Z,25.20
2018-08-13T14:48:34.051Z,25.30
2018-08-13T14:51:02.537Z,25.30
2018-08-13T14:53:31.152Z,25.20
2018-08-13T14:55:59.623Z,25.30
2018-08-13T14:58:28.044Z,25.30
2018-08-13T15:00:56.501Z,25.40
2018-08-13T15:03:24.995Z,25.40
2018-08-13T15:05:53.428Z,25.50
2018-08-13T15:08:21.855Z,25.40
2018-08-13T15:10:50.314Z,25.40
2018-08-13T15:13:18.764Z,25.50
2018-08-13T15:15:47.332Z,25.50
2018-08-13T15:18:15.783Z,25.50
2018-08-13T15:20:44.216Z,25.40
2018-08-13T15:23:12.671Z,25.40
2018-08-13T15:25:41.119Z,25.50
2018-08-13T15:28:09.688Z,25.60
2018-08-13T15:30:37.990Z,25.60
2018-08-13T15:33:06.404Z,25.60
2018-08-13T15:35:34.813Z,25.80
2018-08-13T15:38:03.213Z,25.80
2018-08-13T15:40:31.643Z,25.80
2018-08-13T15:43:00.056Z,25.80
2018-08-13T15:45:28.470Z,25.90
2018-08-13T15:47:57.060Z,25.90
2018-08-13T15:50:25.368Z,25.90
2018-08-13T15:52:53.952Z,26.00
2018-08-13T15:55:22.471Z,26.00
2018-08-13T15:57:50.867Z,26.00
2018-08-13T16:00:22.654Z,26.00
2018-08-13T16:02:51.407Z,26.10
2018-08-13T16:05:20.070Z,26.10
2018-08-13T16:07:48.858Z,26.10
2018-08-13T16:10:17.794Z,26.10
2018-08-13T16:12:46.450Z,26.10
2018-08-13T16:15:15.031Z,26.10
2018-08-13T16:17:43.770Z,26.00
2018-08-13T16:20:14.362Z,26.10
2018-08-13T16:22:43.256Z,26.20
2018-08-13T16:25:11.681Z,26.30
2018-08-13T16:27:40.266Z,26.30
2018-08-13T16:30:17.584Z,26.20
2018-08-13T16:32:47.022Z,26.20
2018-08-13T16:35:15.910Z,26.20
2018-08-13T16:37:44.634Z,26.20
2018-08-13T16:40:13.195Z,26.20
2018-08-13T16:42:41.676Z,26.20
2018-08-13T16:45:12.064Z,26.10
2018-08-13T16:47:41.379Z,26.10
2018-08-13T16:50:19.592Z,26.00
2018-08-13T16:52:48.023Z,26.00
2018-08-13T16:55:16.438Z,25.90
2018-08-13T16:57:50.270Z,26.00
2018-08-13T17:00:23.362Z,25.90
2018-08-13T17:02:52.114Z,25.90
2018-08-13T17:12:07.311Z,25.90
2018-08-13T17:14:36.002Z,25.80
2018-08-13T17:17:04.777Z,25.80
2018-08-13T17:19:33.284Z,25.70
2018-08-13T17:22:01.712Z,25.70
2018-08-13T17:24:30.209Z,25.70
2018-08-13T17:26:58.732Z,25.70
2018-08-13T17:29:27.142Z,25.60
2018-08-13T17:31:55.575Z,25.60
2018-08-13T17:34:24.035Z,25.60
2018-08-13T17:36:52.522Z,25.60
2018-08-13T17:39:21.159Z,25.50
2018-08-13T17:41:49.652Z,25.50
2018-08-13T17:44:18.122Z,25.50
2018-08-13T17:46:46.614Z,25.60
2018-08-13T17:49:15.337Z,25.50
2018-08-13T17:51:43.976Z,25.50
2018-08-13T17:54:12.403Z,25.50
2018-08-13T17:56:40.881Z,25.50
2018-08-13T17:59:12.542Z,25.50
2018-08-13T18:01:41.005Z,25.40
2018-08-13T18:04:09.443Z,25.40
2018-08-13T18:06:37.905Z,25.40
2018-08-13T18:09:09.538Z,25.30
2018-08-13T18:11:38.106Z,25.30
2018-08-13T18:14:06.918Z,25.20
2018-08-13T18:16:35.599Z,25.30
2018-08-13T18:19:04.048Z,25.30
2018-08-13T18:21:32.614Z,25.20
2018-08-13T18:24:01.109Z,25.20
2018-08-13T18:26:29.523Z,25.10
2018-08-13T18:28:58.162Z,25.00
2018-08-13T18:31:26.607Z,24.90
2018-08-13T18:33:55.134Z,24.90
2018-08-13T18:36:23.603Z,24.80
2018-08-13T18:38:52.239Z,24.90
2018-08-13T18:41:20.812Z,24.90
2018-08-13T18:43:49.209Z,24.80
2018-08-13T18:46:17.622Z,24.80
2018-08-13T18:48:46.055Z,24.80
2018-08-13T18:51:14.531Z,24.80
2018-08-13T18:53:43.042Z,24.70
2018-08-13T18:56:11.497Z,24.80
2018-08-13T18:58:40.257Z,24.80
2018-08-13T19:01:10.076Z,24.80
2018-08-13T19:03:38.628Z,24.70
2018-08-13T19:06:07.280Z,24.70
2018-08-13T19:08:35.847Z,24.70
2018-08-13T19:11:04.446Z,24.70
2018-08-13T19:13:32.952Z,24.70
2018-08-13T19:16:01.443Z,24.60
2018-08-13T19:18:29.925Z,24.60
2018-08-13T19:20:58.449Z,24.70
2018-08-13T19:23:27.014Z,24.70
2018-08-13T19:25:55.510Z,24.70
2018-08-13T19:28:24.131Z,24.70
2018-08-13T19:30:52.569Z,24.70
2018-08-13T19:33:21.099Z,24.60
2018-08-13T19:35:49.598Z,24.60
2018-08-13T19:38:18.072Z,24.50
2018-08-13T19:40:46.551Z,24.50
2018-08-13T19:43:14.939Z,24.50
2018-08-13T19:45:43.359Z,24.50
2018-08-13T19:48:11.869Z,24.50
2018-08-13T19:50:40.383Z,24.50
2018-08-13T19:53:08.805Z,24.50
2018-08-13T19:55:37.302Z,24.50
2018-08-13T19:58:05.731Z,24.50
2018-08-13T20:00:34.143Z,24.50
2018-08-13T20:03:02.759Z,24.50
2018-08-13T20:05:31.229Z,24.50
2018-08-13T20:07:59.634Z,24.50
2018-08-13T20:10:28.059Z,24.50
2018-08-13T20:12:56.514Z,24.50
2018-08-13T20:15:24.908Z,24.50
2018-08-13T20:17:53.639Z,24.50
2018-08-13T20:20:22.050Z,24.50
2018-08-13T20:22:50.792Z,24.50
2018-08-13T20:25:20.220Z,24.40
2018-08-13T20:27:49.598Z,24.50
2018-08-13T20:30:21.293Z,24.50
2018-08-13T20:32:50.562Z,24.50
2018-08-13T20:35:19.201Z,24.40
2018-08-13T20:37:47.647Z,24.40
2018-08-13T20:40:17.844Z,24.40
2018-08-13T20:42:46.961Z,24.40
2018-08-13T20:45:17.079Z,24.30
2018-08-13T20:47:45.892Z,24.30
2018-08-13T20:50:17.487Z,24.40
2018-08-13T20:52:46.834Z,24.40
2018-08-13T20:55:18.952Z,24.40
2018-08-13T20:57:48.366Z,24.40
2018-08-13T21:00:18.464Z,24.30
2018-08-13T21:02:47.670Z,24.30
2018-08-13T21:05:16.964Z,24.30
2018-08-13T21:07:46.241Z,24.30
2018-08-13T21:10:16.375Z,24.30
2018-08-13T21:12:44.879Z,24.30
2018-08-13T21:15:14.386Z,24.30
2018-08-13T21:17:42.934Z,24.30
2018-08-13T21:20:28.015Z,24.30
2018-08-13T21:22:56.715Z,24.30
2018-08-13T21:25:25.171Z,24.30
2018-08-13T21:27:53.665Z,24.30
2018-08-13T21:30:22.144Z,24.30
2018-08-13T21:32:50.610Z,24.30
2018-08-13T21:35:22.329Z,24.30
2018-08-13T21:37:51.175Z,24.30
2018-08-13T21:40:19.771Z,24.30
2018-08-13T21:42:48.890Z,24.30
2018-08-13T21:45:17.307Z,24.30
2018-08-13T21:47:45.809Z,24.20
2018-08-13T21:50:20.691Z,24.30
2018-08-13T21:52:50.035Z,24.20
2018-08-13T21:55:18.547Z,24.20
2018-08-13T21:57:47.096Z,24.20
2018-08-13T22:00:28.494Z,24.20
2018-08-13T22:02:58.958Z,24.20
2018-08-13T22:05:27.521Z,24.20
2018-08-13T22:07:55.920Z,24.20
2018-08-13T22:10:24.576Z,24.30
2018-08-13T22:12:53.301Z,24.20
2018-08-13T22:15:28.811Z,24.20
2018-08-13T22:17:58.868Z,24.20
2018-08-13T22:20:27.553Z,24.20
2018-08-13T22:22:57.200Z,24.20
2018-08-13T22:25:33.451Z,24.20
2018-08-13T22:28:02.069Z,24.20
2018-08-13T22:30:32.271Z,24.20
2018-08-13T22:33:00.715Z,24.20
2018-08-13T22:35:29.174Z,24.20
2018-08-13T22:37:57.560Z,24.20
2018-08-13T22:40:25.992Z,24.20
2018-08-13T22:42:54.495Z,24.20
2018-08-13T22:45:23.889Z,24.20
2018-08-13T22:47:52.466Z,24.20
2018-08-13T22:50:21.356Z,24.20
2018-08-13T22:52:50.099Z,24.20
2018-08-13T22:55:19.161Z,24.20
2018-08-13T22:57:47.931Z,24.20
2018-08-13T23:00:18.588Z,24.20
2018-08-13T23:02:47.707Z,24.10
2018-08-13T23:05:26.640Z,24.10
2018-08-13T23:07:55.213Z,24.10
2018-08-13T23:10:24.695Z,24.20
2018-08-13T23:12:54.679Z,24.10
2018-08-13T23:15:23.341Z,24.10
2018-08-13T23:17:52.372Z,24.10
2018-08-13T23:20:24.492Z,24.20
2018-08-13T23:22:57.152Z,24.10
2018-08-13T23:25:25.851Z,24.10
2018-08-13T23:27:55.376Z,24.10
2018-08-13T23:30:23.945Z,24.10
2018-08-13T23:32:53.419Z,24.10
2018-08-13T23:35:22.455Z,24.10
2018-08-13T23:37:51.233Z,24.10
2018-08-13T23:40:19.693Z,24.10
2018-08-13T23:42:48.200Z,24.10
2018-08-13T23:45:20.816Z,24.10
2018-08-13T23:47:49.515Z,24.00
2018-08-13T23:50:20.623Z,24.10
2018-08-13T23:52:50.159Z,24.00
2018-08-13T23:55:21.411Z,24.00
2018-08-13T23:57:49.827Z,24.00
